Time;durP1;ratioP1;P1;durP2;ratioP2;P2;SDS_P1;SDS_P2;PMS_P1;PMS_P2;Temp;Humidity;BMP_temperature;BMP_pressure;BME280_temperature;BME280_humidity;BME280_pressure;Samples;Min_cycle;Max_cycle;Signal;HPM_P1;HPM_P2
2022/08/22 00:00:12;;;;;;;5.88;3.38;;;;;;;;;;5028914;28;20190;-74
2022/08/22 00:02:52;;;;;;;9.07;3.35;;;;;;;;;;5009510;28;20228;-74
2022/08/22 00:05:35;;;;;;;8.45;2.78;;;;;;;;;;5034636;28;20672;-73
2022/08/22 00:08:13;;;;;;;7.78;3.13;;;;;;;;;;5033724;28;20655;-73
2022/08/22 00:10:38;;;;;;;6.38;2.97;;;;;;;;;;5030104;28;20206;-74
2022/08/22 00:13:06;;;;;;;9.03;2.83;;;;;;;;;;5032044;28;20216;-73
2022/08/22 00:15:43;;;;;;;5.32;3.15;;;;;;;;;;5033186;28;20433;-74
2022/08/22 00:18:19;;;;;;;6.60;3.28;;;;;;;;;;5042834;28;20182;-73
2022/08/22 00:20:51;;;;;;;5.28;2.78;;;;;;;;;;5020116;28;20206;-73
2022/08/22 00:23:16;;;;;;;8.05;3.10;;;;;;;;;;5036554;28;20183;-75
2022/08/22 00:25:56;;;;;;;8.10;3.42;;;;;;;;;;5035324;28;20181;-74
2022/08/22 00:28:28;;;;;;;7.10;2.90;;;;;;;;;;5038169;28;20779;-73
2022/08/22 00:30:53;;;;;;;8.55;3.58;;;;;;;;;;5035789;28;20197;-74
2022/08/22 00:33:21;;;;;;;7.07;3.57;;;;;;;;;;5029959;28;20178;-73
2022/08/22 00:35:48;;;;;;;7.35;3.03;;;;;;;;;;5030655;28;20509;-73
2022/08/22 00:38:17;;;;;;;4.05;2.50;;;;;;;;;;5035379;28;20181;-74
2022/08/22 00:40:54;;;;;;;6.85;3.33;;;;;;;;;;5037687;28;20268;-74
2022/08/22 00:43:38;;;;;;;5.88;2.97;;;;;;;;;;5032081;28;20295;-74
2022/08/22 00:46:03;;;;;;;6.18;3.55;;;;;;;;;;5029276;28;20186;-73
2022/08/22 00:48:47;;;;;;;6.30;3.03;;;;;;;;;;5030118;28;20213;-74
2022/08/22 00:51:12;;;;;;;6.40;3.10;;;;;;;;;;5028737;28;20447;-73
2022/08/22 00:53:54;;;;;;;6.97;2.80;;;;;;;;;;5038301;28;20667;-73
2022/08/22 00:56:29;;;;;;;9.43;3.72;;;;;;;;;;5033222;28;20446;-73
2022/08/22 00:59:13;;;;;;;5.90;3.50;;;;;;;;;;5027872;28;20173;-73
2022/08/22 01:02:00;;;;;;;5.18;2.72;;;;;;;;;;5028779;28;20718;-73
2022/08/22 01:04:38;;;;;;;12.02;2.92;;;;;;;;;;5026018;28;20298;-73
2022/08/22 01:07:26;;;;;;;6.80;2.95;;;;;;;;;;5025740;28;20202;-73
2022/08/22 01:10:20;;;;;;;8.48;3.72;;;;;;;;;;5015125;28;20190;-73
2022/08/22 01:13:04;;;;;;;7.68;2.95;;;;;;;;;;5012195;28;20312;-73
2022/08/22 01:15:32;;;;;;;6.68;3.60;;;;;;;;;;5029034;28;20663;-73
2022/08/22 01:17:57;;;;;;;6.97;2.72;;;;;;;;;;5023690;28;20182;-74
2022/08/22 01:20:40;;;;;;;5.40;2.95;;;;;;;;;;5024275;28;20202;-73
2022/08/22 01:23:25;;;;;;;6.88;3.13;;;;;;;;;;5024328;28;20435;-72
2022/08/22 01:26:05;;;;;;;3.75;2.75;;;;;;;;;;5024778;28;20171;-73
2022/08/22 01:28:49;;;;;;;6.20;2.80;;;;;;;;;;5030573;28;20174;-72
2022/08/22 01:31:33;;;;;;;4.25;3.30;;;;;;;;;;5028826;28;20354;-73
2022/08/22 01:34:01;;;;;;;6.47;3.13;;;;;;;;;;5019523;28;20648;-73
2022/08/22 01:36:39;;;;;;;7.03;3.28;;;;;;;;;;5028486;28;20178;-73
2022/08/22 01:39:23;;;;;;;9.90;3.40;;;;;;;;;;5029886;28;20174;-74
2022/08/22 01:42:03;;;;;;;8.98;3.10;;;;;;;;;;5029283;28;20210;-73
2022/08/22 01:44:28;;;;;;;8.25;4.18;;;;;;;;;;5033344;28;20175;-73
2022/08/22 01:47:05;;;;;;;8.93;3.67;;;;;;;;;;5032725;28;20170;-73
2022/08/22 01:49:33;;;;;;;7.93;3.70;;;;;;;;;;5032562;28;20224;-73
2022/08/22 01:52:13;;;;;;;7.75;3.55;;;;;;;;;;5032056;28;20194;-73
2022/08/22 01:54:47;;;;;;;11.52;3.90;;;;;;;;;;5034535;28;20856;-73
2022/08/22 01:57:13;;;;;;;8.40;3.17;;;;;;;;;;5033551;28;20182;-73
2022/08/22 01:59:38;;;;;;;7.40;3.53;;;;;;;;;;5033364;28;20228;-73
2022/08/22 02:02:23;;;;;;;8.57;3.08;;;;;;;;;;5031215;28;20655;-74
2022/08/22 02:05:07;;;;;;;7.13;3.33;;;;;;;;;;5000316;28;20747;-74
2022/08/22 02:07:42;;;;;;;9.93;3.42;;;;;;;;;;5031741;28;20187;-73
2022/08/22 02:10:14;;;;;;;10.05;3.58;;;;;;;;;;5034110;28;20229;-73
2022/08/22 02:12:40;;;;;;;6.85;3.38;;;;;;;;;;5034082;28;20175;-73
2022/08/22 02:15:15;;;;;;;9.57;3.38;;;;;;;;;;5032418;28;20190;-73
2022/08/22 02:17:50;;;;;;;7.15;3.08;;;;;;;;;;5032582;28;20185;-73
2022/08/22 02:20:17;;;;;;;9.88;3.60;;;;;;;;;;5030297;28;20546;-73
2022/08/22 02:22:53;;;;;;;6.57;3.30;;;;;;;;;;5022603;28;20682;-73
2022/08/22 02:25:24;;;;;;;7.70;3.35;;;;;;;;;;5027204;28;20189;-74
2022/08/22 02:27:57;;;;;;;7.07;3.97;;;;;;;;;;5029495;28;20591;-74
2022/08/22 02:30:26;;;;;;;9.48;3.22;;;;;;;;;;5028566;28;20567;-74
2022/08/22 02:32:54;;;;;;;9.25;3.67;;;;;;;;;;5029482;28;20192;-74
2022/08/22 02:35:32;;;;;;;10.13;3.80;;;;;;;;;;5033257;28;20190;-74
2022/08/22 02:38:05;;;;;;;7.18;3.25;;;;;;;;;;5032607;28;20671;-73
2022/08/22 02:40:38;;;;;;;5.35;2.97;;;;;;;;;;5031886;28;20285;-73
2022/08/22 02:43:22;;;;;;;8.38;3.30;;;;;;;;;;5029581;28;20186;-73
2022/08/22 02:45:59;;;;;;;9.95;3.80;;;;;;;;;;5031646;28;20261;-73
2022/08/22 02:48:24;;;;;;;8.05;4.18;;;;;;;;;;5028002;28;20570;-73
2022/08/22 02:50:56;;;;;;;6.85;3.33;;;;;;;;;;5031416;28;20194;-73
2022/08/22 02:53:40;;;;;;;7.47;3.20;;;;;;;;;;5029652;28;20186;-73
2022/08/22 02:56:13;;;;;;;9.68;3.50;;;;;;;;;;5030679;28;20181;-73
2022/08/22 02:58:41;;;;;;;8.18;3.88;;;;;;;;;;5031411;28;20167;-74
2022/08/22 03:01:21;;;;;;;6.22;3.10;;;;;;;;;;5030920;28;20205;-73
2022/08/22 03:03:46;;;;;;;11.98;3.80;;;;;;;;;;5019487;28;20680;-73
2022/08/22 03:06:38;;;;;;;5.45;3.35;;;;;;;;;;5031253;28;20216;-73
2022/08/22 03:09:12;;;;;;;5.97;3.30;;;;;;;;;;5029909;28;20187;-74
2022/08/22 03:11:38;;;;;;;7.25;3.42;;;;;;;;;;5029474;28;20201;-74
2022/08/22 03:14:10;;;;;;;6.13;3.13;;;;;;;;;;5030556;28;20204;-73
2022/08/22 03:16:48;;;;;;;8.38;3.67;;;;;;;;;;5031316;28;20202;-75
2022/08/22 03:19:16;;;;;;;7.55;3.33;;;;;;;;;;5026842;28;20186;-73
2022/08/22 03:21:44;;;;;;;8.23;3.45;;;;;;;;;;5021738;28;21283;-73
2022/08/22 03:24:22;;;;;;;7.82;3.30;;;;;;;;;;5022238;28;20182;-73
2022/08/22 03:27:06;;;;;;;7.30;3.97;;;;;;;;;;5030777;28;20743;-74
2022/08/22 03:29:42;;;;;;;8.70;3.78;;;;;;;;;;5031358;28;20186;-73
2022/08/22 03:32:13;;;;;;;8.13;3.72;;;;;;;;;;5030602;28;20182;-73
2022/08/22 03:34:53;;;;;;;8.55;3.20;;;;;;;;;;5030285;28;20186;-74
2022/08/22 03:37:22;;;;;;;6.10;3.72;;;;;;;;;;5028454;28;20608;-73
2022/08/22 03:39:50;;;;;;;10.07;3.65;;;;;;;;;;5030500;28;20174;-73
2022/08/22 03:42:27;;;;;;;9.02;3.72;;;;;;;;;;5031118;28;20229;-73
2022/08/22 03:45:24;;;;;;;7.30;4.07;;;;;;;;;;5031117;28;20178;-73
2022/08/22 03:48:13;;;;;;;6.50;3.17;;;;;;;;;;4996142;28;20198;-73
2022/08/22 03:50:58;;;;;;;8.40;3.95;;;;;;;;;;5033648;28;20578;-73
2022/08/22 03:53:40;;;;;;;10.25;3.55;;;;;;;;;;5030283;28;20178;-73
2022/08/22 03:56:23;;;;;;;4.60;2.95;;;;;;;;;;5029411;28;20593;-73
2022/08/22 03:59:03;;;;;;;15.27;4.53;;;;;;;;;;5030876;28;20217;-75
2022/08/22 04:01:32;;;;;;;7.22;3.90;;;;;;;;;;5029079;28;20206;-74
2022/08/22 04:04:09;;;;;;;6.63;3.05;;;;;;;;;;5030957;28;20181;-74
2022/08/22 04:06:37;;;;;;;6.88;3.83;;;;;;;;;;5029646;28;20174;-74
2022/08/22 04:09:18;;;;;;;8.45;3.80;;;;;;;;;;5029407;28;20644;-74
2022/08/22 04:11:49;;;;;;;6.10;3.55;;;;;;;;;;5030732;28;20240;-74
2022/08/22 04:14:22;;;;;;;7.95;3.72;;;;;;;;;;5029952;28;20313;-74
2022/08/22 04:16:48;;;;;;;8.10;3.33;;;;;;;;;;5029552;28;20190;-74
2022/08/22 04:19:28;;;;;;;7.60;3.17;;;;;;;;;;5031806;28;20182;-74
2022/08/22 04:21:53;;;;;;;6.30;3.70;;;;;;;;;;5020053;28;20455;-74
2022/08/22 04:24:45;;;;;;;7.97;4.37;;;;;;;;;;5026265;28;20174;-75
2022/08/22 04:27:13;;;;;;;11.27;4.25;;;;;;;;;;5028133;28;20420;-75
2022/08/22 04:29:45;;;;;;;10.13;3.80;;;;;;;;;;5026126;28;20204;-74
2022/08/22 04:32:10;;;;;;;7.28;3.60;;;;;;;;;;5030418;28;20178;-72
2022/08/22 04:34:38;;;;;;;7.47;3.70;;;;;;;;;;5024096;28;20189;-75
2022/08/22 04:37:27;;;;;;;7.85;3.30;;;;;;;;;;5030709;28;20433;-75
2022/08/22 04:39:53;;;;;;;6.90;3.83;;;;;;;;;;5028108;28;20186;-73
2022/08/22 04:42:27;;;;;;;8.80;3.90;;;;;;;;;;5029177;28;20904;-73
2022/08/22 04:44:56;;;;;;;8.35;3.63;;;;;;;;;;5029886;28;20419;-73
2022/08/22 04:47:35;;;;;;;9.13;3.53;;;;;;;;;;5029609;28;20266;-73
2022/08/22 04:50:04;;;;;;;7.47;3.33;;;;;;;;;;5045658;28;20232;-75
2022/08/22 04:52:48;;;;;;;7.85;3.40;;;;;;;;;;5027494;28;20819;-75
2022/08/22 04:55:31;;;;;;;7.22;3.15;;;;;;;;;;5031317;28;20178;-73
2022/08/22 04:58:15;;;;;;;5.32;3.42;;;;;;;;;;5028100;28;20175;-73
2022/08/22 05:00:55;;;;;;;7.75;3.60;;;;;;;;;;5030120;28;20190;-71
2022/08/22 05:03:22;;;;;;;7.55;3.63;;;;;;;;;;5029451;28;20554;-71
2022/08/22 05:05:48;;;;;;;9.10;4.18;;;;;;;;;;5026417;28;20257;-71
2022/08/22 05:08:16;;;;;;;8.63;4.38;;;;;;;;;;5028101;28;20268;-71
2022/08/22 05:10:45;;;;;;;11.77;3.90;;;;;;;;;;5027626;28;20243;-71
2022/08/22 05:13:19;;;;;;;8.40;3.85;;;;;;;;;;5028721;28;20177;-70
2022/08/22 05:15:47;;;;;;;10.88;4.07;;;;;;;;;;5025338;28;20208;-70
2022/08/22 05:18:15;;;;;;;6.85;3.60;;;;;;;;;;5032693;28;20256;-70
2022/08/22 05:20:43;;;;;;;7.28;3.42;;;;;;;;;;5032418;28;20201;-69
2022/08/22 05:23:21;;;;;;;6.22;3.45;;;;;;;;;;5037650;28;20181;-70
2022/08/22 05:25:48;;;;;;;7.65;3.72;;;;;;;;;;5031129;28;20170;-70
2022/08/22 05:28:17;;;;;;;7.35;3.58;;;;;;;;;;5034222;28;20197;-72
2022/08/22 05:30:44;;;;;;;7.93;3.70;;;;;;;;;;5032349;28;20194;-72
2022/08/22 05:33:10;;;;;;;7.07;3.28;;;;;;;;;;5035111;28;20174;-72
2022/08/22 05:35:36;;;;;;;7.63;3.63;;;;;;;;;;5035101;28;20170;-72
2022/08/22 05:38:02;;;;;;;9.48;4.43;;;;;;;;;;5035313;28;20510;-70
2022/08/22 05:40:28;;;;;;;7.53;3.72;;;;;;;;;;5032444;28;20636;-70
2022/08/22 05:42:55;;;;;;;11.85;4.25;;;;;;;;;;5033921;28;20206;-73
2022/08/22 05:45:21;;;;;;;13.77;4.50;;;;;;;;;;5030893;28;20520;-72
2022/08/22 05:48:07;;;;;;;8.07;4.00;;;;;;;;;;5028562;28;20175;-72
2022/08/22 05:50:40;;;;;;;11.18;3.80;;;;;;;;;;5033374;28;20202;-71
2022/08/22 05:53:32;;;;;;;11.25;4.20;;;;;;;;;;5031305;28;20182;-71
2022/08/22 05:56:01;;;;;;;7.25;4.38;;;;;;;;;;5028243;28;20201;-71
2022/08/22 05:58:42;;;;;;;10.07;4.88;;;;;;;;;;5029943;28;20282;-70
2022/08/22 06:01:22;;;;;;;8.55;4.40;;;;;;;;;;5022580;28;20209;-70
2022/08/22 06:04:00;;;;;;;8.10;4.18;;;;;;;;;;5032052;28;20181;-70
2022/08/22 06:06:26;;;;;;;9.23;3.80;;;;;;;;;;5049138;28;20584;-70
2022/08/22 06:09:03;;;;;;;8.77;4.00;;;;;;;;;;5030493;28;20224;-70
2022/08/22 06:11:41;;;;;;;7.78;3.75;;;;;;;;;;5031264;28;20210;-70
2022/08/22 06:14:06;;;;;;;9.57;3.92;;;;;;;;;;5029852;28;20185;-69
2022/08/22 06:16:37;;;;;;;7.13;3.77;;;;;;;;;;5031529;28;20193;-70
2022/08/22 06:19:02;;;;;;;10.40;4.65;;;;;;;;;;5032572;28;20848;-70
2022/08/22 06:21:36;;;;;;;6.82;3.50;;;;;;;;;;5030667;28;20202;-70
2022/08/22 06:24:03;;;;;;;9.95;4.22;;;;;;;;;;5032689;28;20257;-70
2022/08/22 06:26:34;;;;;;;8.35;4.57;;;;;;;;;;5031676;28;20207;-70
2022/08/22 06:29:00;;;;;;;8.70;3.72;;;;;;;;;;5030880;28;20189;-70
2022/08/22 06:31:29;;;;;;;8.32;4.10;;;;;;;;;;5030316;28;20621;-70
2022/08/22 06:33:57;;;;;;;12.07;4.15;;;;;;;;;;5032371;28;20185;-71
2022/08/22 06:36:30;;;;;;;9.25;4.05;;;;;;;;;;5032189;28;20197;-71
2022/08/22 06:39:04;;;;;;;10.40;4.20;;;;;;;;;;5028993;28;20257;-71
2022/08/22 06:41:31;;;;;;;10.40;4.30;;;;;;;;;;5032414;28;20198;-71
2022/08/22 06:43:57;;;;;;;8.40;3.67;;;;;;;;;;5033049;28;20174;-71
2022/08/22 06:46:25;;;;;;;10.57;4.18;;;;;;;;;;5048106;28;20728;-71
2022/08/22 06:48:53;;;;;;;10.23;4.20;;;;;;;;;;5032080;28;20187;-72
2022/08/22 06:51:19;;;;;;;10.10;4.72;;;;;;;;;;5032384;28;20198;-72
2022/08/22 06:53:45;;;;;;;11.13;4.15;;;;;;;;;;5030196;28;20252;-71
2022/08/22 06:56:12;;;;;;;10.52;3.90;;;;;;;;;;5030824;28;20186;-70
2022/08/22 06:58:42;;;;;;;7.57;4.13;;;;;;;;;;5030742;28;20257;-68
2022/08/22 07:01:12;;;;;;;10.50;4.43;;;;;;;;;;5025335;28;20202;-70
2022/08/22 07:03:58;;;;;;;7.70;4.25;;;;;;;;;;5027509;28;20198;-69
2022/08/22 07:06:30;;;;;;;9.15;4.63;;;;;;;;;;5010936;28;20277;-70
2022/08/22 07:08:56;;;;;;;10.48;4.32;;;;;;;;;;5028090;28;20170;-70
2022/08/22 07:11:26;;;;;;;9.65;4.80;;;;;;;;;;5034404;28;20293;-70
2022/08/22 07:14:02;;;;;;;9.43;4.60;;;;;;;;;;5047412;28;20182;-70
2022/08/22 07:16:33;;;;;;;8.55;4.65;;;;;;;;;;5040718;28;20189;-70
2022/08/22 07:18:58;;;;;;;7.25;4.00;;;;;;;;;;5026903;28;20217;-70
2022/08/22 07:21:39;;;;;;;8.32;4.80;;;;;;;;;;5027082;28;20238;-70
2022/08/22 07:24:05;;;;;;;12.90;5.47;;;;;;;;;;5030661;28;20182;-70
2022/08/22 07:26:49;;;;;;;12.02;5.55;;;;;;;;;;5029644;28;20166;-70
2022/08/22 07:29:27;;;;;;;10.35;4.72;;;;;;;;;;5039335;28;20261;-70
2022/08/22 07:31:52;;;;;;;9.52;5.00;;;;;;;;;;5026184;28;20224;-69
2022/08/22 07:34:41;;;;;;;10.73;4.77;;;;;;;;;;5034459;28;20210;-70
2022/08/22 07:37:27;;;;;;;13.05;6.15;;;;;;;;;;5031340;28;20436;-70
2022/08/22 07:39:56;;;;;;;11.73;5.03;;;;;;;;;;5032350;28;20197;-70
2022/08/22 07:42:26;;;;;;;10.98;5.22;;;;;;;;;;5031116;28;20800;-70
2022/08/22 07:45:06;;;;;;;10.55;4.55;;;;;;;;;;5035650;28;20178;-70
2022/08/22 07:47:52;;;;;;;13.23;5.05;;;;;;;;;;5031704;28;20250;-70
2022/08/22 07:50:21;;;;;;;7.95;4.90;;;;;;;;;;5035176;28;20199;-70
2022/08/22 07:52:46;;;;;;;23.70;5.65;;;;;;;;;;5029963;28;20204;-69
2022/08/22 07:55:16;;;;;;;9.40;4.45;;;;;;;;;;5031347;28;20774;-69
2022/08/22 07:57:43;;;;;;;40.53;8.25;;;;;;;;;;5021857;28;20229;-70
2022/08/22 08:00:14;;;;;;;12.85;4.70;;;;;;;;;;5041450;28;20247;-70
2022/08/22 08:02:44;;;;;;;15.75;5.00;;;;;;;;;;5030614;28;20208;-68
2022/08/22 08:05:11;;;;;;;29.30;6.35;;;;;;;;;;5028707;28;20222;-69
2022/08/22 08:07:38;;;;;;;10.70;4.43;;;;;;;;;;5031173;28;20182;-69
2022/08/22 08:10:08;;;;;;;85.57;10.05;;;;;;;;;;5026181;28;20282;-69
2022/08/22 08:12:35;;;;;;;10.13;4.38;;;;;;;;;;5032586;28;20222;-70
2022/08/22 08:15:03;;;;;;;28.45;6.43;;;;;;;;;;5047087;28;20631;-70
2022/08/22 08:17:29;;;;;;;20.70;4.60;;;;;;;;;;5035763;28;20310;-70
2022/08/22 08:19:55;;;;;;;120.97;10.52;;;;;;;;;;5031609;28;20648;-69
2022/08/22 08:22:23;;;;;;;38.58;6.45;;;;;;;;;;5030695;28;20205;-70
2022/08/22 08:24:49;;;;;;;11.32;4.45;;;;;;;;;;5031973;28;20204;-70
2022/08/22 08:30:04;;;;;;;16.33;4.53;;;;;;;;;;5034880;28;20189;-69
2022/08/22 08:32:32;;;;;;;8.80;4.22;;;;;;;;;;5029491;28;20647;-69
2022/08/22 08:34:58;;;;;;;5.50;4.18;;;;;;;;;;5032041;28;20182;-69
2022/08/22 08:37:30;;;;;;;32.35;5.13;;;;;;;;;;5029856;28;20212;-69
2022/08/22 08:39:57;;;;;;;8.43;3.92;;;;;;;;;;5030738;28;20577;-68
2022/08/22 08:45:44;;;;;;;8.27;3.72;;;;;;;;;;5030975;28;20181;-69
2022/08/22 08:48:15;;;;;;;11.77;3.88;;;;;;;;;;5020549;28;20181;-69
2022/08/22 08:50:58;;;;;;;9.55;3.67;;;;;;;;;;5023726;28;20186;-69
2022/08/22 08:53:29;;;;;;;8.48;3.00;;;;;;;;;;5026663;28;20595;-70
2022/08/22 08:56:00;;;;;;;6.65;3.47;;;;;;;;;;5032469;28;20174;-69
2022/08/22 08:58:44;;;;;;;13.68;3.83;;;;;;;;;;5033536;28;20197;-70
2022/08/22 09:01:15;;;;;;;10.40;3.25;;;;;;;;;;5029620;28;20782;-69
2022/08/22 09:04:00;;;;;;;8.15;3.63;;;;;;;;;;5028659;28;20290;-69
2022/08/22 09:06:44;;;;;;;11.50;3.83;;;;;;;;;;5032605;28;20193;-69
2022/08/22 09:09:39;;;;;;;11.70;3.75;;;;;;;;;;5034101;28;20177;-71
2022/08/22 09:12:04;;;;;;;6.20;2.35;;;;;;;;;;4972719;28;20397;-70
2022/08/22 09:14:48;;;;;;;8.55;2.80;;;;;;;;;;5031141;28;20541;-71
2022/08/22 09:17:26;;;;;;;6.97;2.45;;;;;;;;;;5032707;28;20705;-71
2022/08/22 09:20:00;;;;;;;4.60;2.35;;;;;;;;;;5030836;28;20189;-70
2022/08/22 09:22:37;;;;;;;7.63;2.50;;;;;;;;;;5029320;28;20193;-71
2022/08/22 09:25:05;;;;;;;3.92;2.22;;;;;;;;;;5031049;28;20162;-73
2022/08/22 09:27:35;;;;;;;4.63;2.30;;;;;;;;;;5033212;28;20178;-72
2022/08/22 09:30:04;;;;;;;7.13;1.95;;;;;;;;;;5044533;28;20284;-71
2022/08/22 09:32:29;;;;;;;6.53;2.10;;;;;;;;;;5030733;28;20547;-72
2022/08/22 09:35:07;;;;;;;4.13;2.28;;;;;;;;;;5025537;28;20178;-71
2022/08/22 09:37:57;;;;;;;4.43;2.22;;;;;;;;;;5029298;28;20182;-71
2022/08/22 09:40:29;;;;;;;7.10;2.25;;;;;;;;;;5034699;28;20205;-69
2022/08/22 09:43:01;;;;;;;4.35;2.40;;;;;;;;;;5027054;28;20272;-68
2022/08/22 09:45:39;;;;;;;7.13;2.13;;;;;;;;;;5033569;28;20574;-69
2022/08/22 09:48:22;;;;;;;6.07;2.10;;;;;;;;;;5038157;28;20589;-68
2022/08/22 09:50:55;;;;;;;4.13;2.38;;;;;;;;;;5028997;28;20807;-70
2022/08/22 09:53:32;;;;;;;5.25;2.45;;;;;;;;;;5028342;28;20190;-69
2022/08/22 09:56:09;;;;;;;4.80;2.53;;;;;;;;;;5032984;28;20181;-68
2022/08/22 09:58:53;;;;;;;9.05;2.63;;;;;;;;;;5029232;28;20837;-68
2022/08/22 10:01:25;;;;;;;8.85;2.83;;;;;;;;;;5028378;28;20213;-69
2022/08/22 10:04:13;;;;;;;9.20;2.42;;;;;;;;;;5027365;28;20258;-67
2022/08/22 10:06:42;;;;;;;6.22;2.90;;;;;;;;;;5024518;28;20186;-69
2022/08/22 10:09:30;;;;;;;7.60;2.70;;;;;;;;;;5033146;28;20205;-70
2022/08/22 10:12:00;;;;;;;7.78;2.78;;;;;;;;;;5033590;28;20553;-69
2022/08/22 10:14:43;;;;;;;6.28;3.05;;;;;;;;;;5033544;28;20202;-72
2022/08/22 10:17:20;;;;;;;5.57;2.80;;;;;;;;;;5032360;28;20213;-73
2022/08/22 10:19:55;;;;;;;8.05;2.85;;;;;;;;;;5026649;28;20209;-72
2022/08/22 10:22:23;;;;;;;8.40;2.80;;;;;;;;;;5030833;28;20683;-72
2022/08/22 10:25:07;;;;;;;4.13;2.22;;;;;;;;;;5024400;28;20183;-72
2022/08/22 10:27:38;;;;;;;5.53;2.22;;;;;;;;;;5031676;28;20182;-72
2022/08/22 10:30:06;;;;;;;4.78;2.53;;;;;;;;;;5032482;28;20539;-72
2022/08/22 10:32:38;;;;;;;6.68;3.13;;;;;;;;;;5032757;28;20193;-72
2022/08/22 10:35:22;;;;;;;7.80;2.80;;;;;;;;;;5038073;28;20213;-73
2022/08/22 10:37:53;;;;;;;8.05;3.03;;;;;;;;;;5031834;28;20178;-72
2022/08/22 10:40:24;;;;;;;5.40;2.58;;;;;;;;;;5032221;28;20365;-72
2022/08/22 10:42:50;;;;;;;9.00;2.42;;;;;;;;;;5034291;28;20315;-72
2022/08/22 10:45:25;;;;;;;8.15;2.35;;;;;;;;;;5035279;28;20178;-73
2022/08/22 10:47:56;;;;;;;10.43;2.75;;;;;;;;;;5031024;28;20180;-71
2022/08/22 10:50:24;;;;;;;6.03;2.72;;;;;;;;;;5030475;28;20216;-72
2022/08/22 10:53:28;;;;;;;5.95;2.55;;;;;;;;;;5032835;28;20581;-71
2022/08/22 10:55:39;;;;;;;5.05;2.17;;;;;;;;;;5028860;28;20281;-72
2022/08/22 10:58:09;;;;;;;8.93;3.95;;;;;;;;;;5025496;28;20198;-72
2022/08/22 11:00:34;;;;;;;6.40;2.40;;;;;;;;;;5031991;28;20253;-73
2022/08/22 11:03:20;;;;;;;8.07;2.73;;;;;;;;;;5034599;28;20679;-72
2022/08/22 11:05:46;;;;;;;10.18;2.80;;;;;;;;;;5028592;28;20332;-72
2022/08/22 11:08:14;;;;;;;5.93;2.20;;;;;;;;;;5032000;28;20174;-72
2022/08/22 11:11:00;;;;;;;7.35;2.70;;;;;;;;;;5039162;28;20575;-72
2022/08/22 11:13:39;;;;;;;8.95;2.90;;;;;;;;;;5036528;28;20185;-72
2022/08/22 11:16:24;;;;;;;7.70;2.50;;;;;;;;;;5026924;28;20198;-71
2022/08/22 11:19:08;;;;;;;6.45;2.65;;;;;;;;;;5029471;28;20174;-71
2022/08/22 11:21:46;;;;;;;7.80;2.70;;;;;;;;;;5031171;28;20206;-72
2022/08/22 11:24:16;;;;;;;5.32;2.60;;;;;;;;;;5031271;28;20174;-72
2022/08/22 11:26:42;;;;;;;6.82;2.53;;;;;;;;;;5020214;28;20183;-73
2022/08/22 11:29:23;;;;;;;8.57;2.80;;;;;;;;;;5027779;28;20167;-73
2022/08/22 11:31:59;;;;;;;6.13;2.42;;;;;;;;;;5026284;28;20271;-72
2022/08/22 11:34:24;;;;;;;7.65;2.67;;;;;;;;;;5027179;28;20209;-72
2022/08/22 11:36:52;;;;;;;9.53;2.60;;;;;;;;;;5031298;28;20259;-70
2022/08/22 11:39:19;;;;;;;6.88;2.63;;;;;;;;;;5030632;28;20189;-68
2022/08/22 11:42:04;;;;;;;9.68;2.20;;;;;;;;;;5027275;28;20198;-70
2022/08/22 11:44:30;;;;;;;5.97;2.67;;;;;;;;;;5045454;28;20182;-70
2022/08/22 11:46:57;;;;;;;12.90;2.97;;;;;;;;;;5032118;28;20178;-69
2022/08/22 11:49:28;;;;;;;6.63;2.35;;;;;;;;;;5031188;28;20186;-69
2022/08/22 11:51:56;;;;;;;6.75;2.80;;;;;;;;;;5028230;28;20201;-69
2022/08/22 11:54:27;;;;;;;6.45;2.50;;;;;;;;;;5031493;28;20201;-69
2022/08/22 11:57:01;;;;;;;5.78;2.20;;;;;;;;;;5030777;28;21986;-69
2022/08/22 11:59:26;;;;;;;6.13;2.10;;;;;;;;;;5036088;28;20184;-69
2022/08/22 12:02:14;;;;;;;7.83;3.00;;;;;;;;;;5029487;28;20213;-69
2022/08/22 12:04:42;;;;;;;7.18;2.05;;;;;;;;;;5025574;28;20663;-69
2022/08/22 12:07:11;;;;;;;5.43;2.30;;;;;;;;;;5030599;28;20170;-70
2022/08/22 12:09:56;;;;;;;5.80;2.50;;;;;;;;;;5029501;28;20182;-69
2022/08/22 12:12:36;;;;;;;9.32;2.72;;;;;;;;;;5030746;28;20189;-69
2022/08/22 12:15:20;;;;;;;4.93;2.30;;;;;;;;;;5032218;28;20690;-70
2022/08/22 12:17:57;;;;;;;6.15;2.13;;;;;;;;;;5031043;28;20562;-70
2022/08/22 12:20:34;;;;;;;7.53;2.60;;;;;;;;;;5027281;28;20231;-71
2022/08/22 12:23:02;;;;;;;7.10;2.13;;;;;;;;;;5037722;28;20208;-69
2022/08/22 12:25:49;;;;;;;5.85;2.85;;;;;;;;;;5027778;28;20669;-71
2022/08/22 12:28:23;;;;;;;7.28;2.65;;;;;;;;;;5026753;28;20655;-68
2022/08/22 12:30:57;;;;;;;5.03;2.28;;;;;;;;;;5029567;28;20743;-69
2022/08/22 12:33:31;;;;;;;6.63;2.40;;;;;;;;;;5035325;28;20177;-70
2022/08/22 12:35:58;;;;;;;6.43;2.58;;;;;;;;;;5033918;28;20591;-69
2022/08/22 12:38:37;;;;;;;7.63;2.25;;;;;;;;;;5030526;28;20719;-70
2022/08/22 12:41:08;;;;;;;8.20;2.53;;;;;;;;;;5032525;28;20355;-70
2022/08/22 12:43:43;;;;;;;8.25;2.15;;;;;;;;;;5028112;28;20208;-69
2022/08/22 12:46:15;;;;;;;6.75;2.85;;;;;;;;;;5031969;28;20216;-70
2022/08/22 12:48:52;;;;;;;4.93;2.08;;;;;;;;;;5033756;28;20189;-70
2022/08/22 12:51:21;;;;;;;7.07;2.83;;;;;;;;;;5032788;28;20759;-69
2022/08/22 12:54:01;;;;;;;5.97;2.35;;;;;;;;;;5033030;28;20200;-69
2022/08/22 12:56:29;;;;;;;6.07;3.08;;;;;;;;;;5033623;28;20174;-69
2022/08/22 12:59:14;;;;;;;5.30;2.30;;;;;;;;;;5029858;28;20204;-69
2022/08/22 13:01:41;;;;;;;6.45;2.47;;;;;;;;;;5031760;28;20197;-68
2022/08/22 13:04:11;;;;;;;6.78;2.38;;;;;;;;;;5034417;28;20169;-68
2022/08/22 13:06:37;;;;;;;7.75;2.22;;;;;;;;;;5032946;28;20178;-68
2022/08/22 13:09:17;;;;;;;11.32;2.47;;;;;;;;;;5035104;28;20169;-70
2022/08/22 13:11:43;;;;;;;6.30;2.17;;;;;;;;;;5032410;28;20189;-69
2022/08/22 13:14:10;;;;;;;7.35;1.98;;;;;;;;;;5033820;28;20181;-70
2022/08/22 13:16:37;;;;;;;7.20;2.80;;;;;;;;;;5033334;28;20201;-68
2022/08/22 13:19:07;;;;;;;6.65;2.55;;;;;;;;;;5034440;28;20188;-69
2022/08/22 13:21:36;;;;;;;8.02;2.72;;;;;;;;;;5033077;28;20209;-69
2022/08/22 13:24:16;;;;;;;6.13;2.28;;;;;;;;;;5036464;28;20189;-69
2022/08/22 13:26:49;;;;;;;9.10;2.50;;;;;;;;;;5029993;28;20226;-68
2022/08/22 13:29:38;;;;;;;5.15;2.15;;;;;;;;;;5030349;28;20550;-68
2022/08/22 13:32:03;;;;;;;4.25;1.80;;;;;;;;;;5029194;28;20221;-68
2022/08/22 13:34:31;;;;;;;8.25;2.30;;;;;;;;;;5034605;28;20186;-68
2022/08/22 13:36:59;;;;;;;8.95;2.63;;;;;;;;;;5040476;28;20192;-69
2022/08/22 13:39:27;;;;;;;5.70;2.30;;;;;;;;;;5046514;28;20663;-69
2022/08/22 13:41:53;;;;;;;4.45;1.90;;;;;;;;;;5043738;28;20201;-69
2022/08/22 13:44:21;;;;;;;7.10;2.03;;;;;;;;;;5040800;28;20205;-68
2022/08/22 13:46:48;;;;;;;5.43;2.30;;;;;;;;;;5044364;28;20216;-68
2022/08/22 13:49:17;;;;;;;5.95;2.17;;;;;;;;;;5040346;28;20569;-68
2022/08/22 13:51:50;;;;;;;4.70;2.00;;;;;;;;;;5034068;28;20201;-68
2022/08/22 13:54:15;;;;;;;5.70;2.08;;;;;;;;;;5036008;28;20304;-68
2022/08/22 13:56:46;;;;;;;4.07;2.03;;;;;;;;;;5036516;28;20220;-69
2022/08/22 13:59:14;;;;;;;5.32;1.90;;;;;;;;;;5028383;28;20185;-69
2022/08/22 14:01:46;;;;;;;7.95;2.70;;;;;;;;;;5033345;28;20201;-68
2022/08/22 14:04:11;;;;;;;6.70;1.77;;;;;;;;;;5030488;28;20171;-68
2022/08/22 14:06:45;;;;;;;4.85;2.47;;;;;;;;;;5033305;28;20182;-67
2022/08/22 14:09:20;;;;;;;4.45;1.98;;;;;;;;;;5034594;28;20177;-70
2022/08/22 14:11:50;;;;;;;4.03;1.85;;;;;;;;;;5028903;28;20200;-68
2022/08/22 14:14:21;;;;;;;7.20;3.00;;;;;;;;;;5035981;28;20533;-68
2022/08/22 14:16:47;;;;;;;8.23;2.28;;;;;;;;;;5033573;28;20202;-70
2022/08/22 14:19:24;;;;;;;6.30;2.35;;;;;;;;;;5035077;28;20178;-67
2022/08/22 14:21:52;;;;;;;8.55;2.33;;;;;;;;;;5034983;28;20206;-68
2022/08/22 14:24:20;;;;;;;5.07;1.80;;;;;;;;;;5034642;28;20173;-68
2022/08/22 14:26:57;;;;;;;8.40;2.17;;;;;;;;;;5035543;28;20182;-68
2022/08/22 14:29:23;;;;;;;4.50;1.80;;;;;;;;;;5033984;28;20182;-69
2022/08/22 14:31:59;;;;;;;6.57;2.13;;;;;;;;;;5026052;28;20216;-68
2022/08/22 14:34:26;;;;;;;3.92;1.70;;;;;;;;;;5029006;28;20186;-68
2022/08/22 14:37:06;;;;;;;6.68;2.70;;;;;;;;;;5032772;28;20174;-68
2022/08/22 14:39:32;;;;;;;9.27;2.50;;;;;;;;;;5035383;28;20703;-69
2022/08/22 14:42:04;;;;;;;8.13;2.60;;;;;;;;;;5036791;28;20292;-68
2022/08/22 14:44:32;;;;;;;6.13;2.30;;;;;;;;;;5033969;28;20182;-67
2022/08/22 14:47:00;;;;;;;15.90;2.88;;;;;;;;;;5037210;28;20544;-68
2022/08/22 14:49:28;;;;;;;56.08;4.60;;;;;;;;;;5036910;28;20239;-69
2022/08/22 14:52:08;;;;;;;4.05;2.00;;;;;;;;;;5030153;28;20253;-68
2022/08/22 14:54:33;;;;;;;7.07;2.50;;;;;;;;;;5032788;28;20198;-67
2022/08/22 14:57:01;;;;;;;5.55;2.47;;;;;;;;;;5019829;28;20558;-67
2022/08/22 14:59:37;;;;;;;7.50;2.30;;;;;;;;;;5031077;28;20191;-67
2022/08/22 15:02:26;;;;;;;5.63;2.40;;;;;;;;;;5033704;28;20259;-67
2022/08/22 15:04:52;;;;;;;7.28;2.20;;;;;;;;;;5024162;28;20608;-68
2022/08/22 15:07:25;;;;;;;6.20;2.63;;;;;;;;;;5040565;28;20169;-68
2022/08/22 15:09:53;;;;;;;4.68;1.77;;;;;;;;;;5033113;28;20194;-68
2022/08/22 15:12:38;;;;;;;6.28;2.30;;;;;;;;;;5030167;28;20240;-68
2022/08/22 15:15:06;;;;;;;10.30;2.20;;;;;;;;;;5029321;28;20549;-68
2022/08/22 15:17:43;;;;;;;6.28;2.22;;;;;;;;;;5032384;28;20592;-69
2022/08/22 15:20:09;;;;;;;5.20;1.98;;;;;;;;;;5031678;28;20190;-69
2022/08/22 15:22:35;;;;;;;5.65;1.95;;;;;;;;;;5033327;28;20197;-68